sensor_id;sensor_type;location;lat;lon;timestamp;P1;durP1;ratioP1;P2;durP2;ratioP2
17606;SDS011;69222;52.242;20.980;2024-01-30T00:01:25;24.30;;;14.43;;
17606;SDS011;69222;52.242;20.980;2024-01-30T00:03:54;24.67;;;14.77;;
17606;SDS011;69222;52.242;20.980;2024-01-30T00:06:23;27.57;;;13.67;;
17606;SDS011;69222;52.242;20.980;2024-01-30T00:08:51;26.13;;;15.00;;
17606;SDS011;69222;52.242;20.980;2024-01-30T00:11:19;28.80;;;15.27;;
17606;SDS011;69222;52.242;20.980;2024-01-30T00:13:47;23.30;;;14.23;;
17606;SDS011;69222;52.242;20.980;2024-01-30T00:16:24;24.87;;;14.93;;
17606;SDS011;69222;52.242;20.980;2024-01-30T00:18:54;25.67;;;15.10;;
17606;SDS011;69222;52.242;20.980;2024-01-30T00:21:22;26.27;;;16.20;;
17606;SDS011;69222;52.242;20.980;2024-01-30T00:23:50;26.70;;;14.37;;
17606;SDS011;69222;52.242;20.980;2024-01-30T00:26:18;29.20;;;15.50;;
17606;SDS011;69222;52.242;20.980;2024-01-30T00:28:47;24.10;;;14.60;;
17606;SDS011;69222;52.242;20.980;2024-01-30T00:31:14;27.27;;;15.00;;
17606;SDS011;69222;52.242;20.980;2024-01-30T00:33:43;24.00;;;14.50;;
17606;SDS011;69222;52.242;20.980;2024-01-30T00:36:12;29.57;;;15.33;;
17606;SDS011;69222;52.242;20.980;2024-01-30T00:38:40;23.40;;;14.60;;
17606;SDS011;69222;52.242;20.980;2024-01-30T00:41:08;28.73;;;15.33;;
17606;SDS011;69222;52.242;20.980;2024-01-30T00:43:36;31.83;;;15.63;;
17606;SDS011;69222;52.242;20.980;2024-01-30T00:46:04;28.90;;;15.33;;
17606;SDS011;69222;52.242;20.980;2024-01-30T00:48:32;26.47;;;15.73;;
17606;SDS011;69222;52.242;20.980;2024-01-30T00:51:00;26.27;;;14.80;;
17606;SDS011;69222;52.242;20.980;2024-01-30T00:53:29;25.30;;;15.43;;
17606;SDS011;69222;52.242;20.980;2024-01-30T00:55:57;29.57;;;16.50;;
17606;SDS011;69222;52.242;20.980;2024-01-30T00:58:25;27.23;;;15.50;;
17606;SDS011;69222;52.242;20.980;2024-01-30T01:00:53;28.43;;;15.60;;
17606;SDS011;69222;52.242;20.980;2024-01-30T01:03:21;32.33;;;15.93;;
17606;SDS011;69222;52.242;20.980;2024-01-30T01:05:49;27.17;;;15.57;;
17606;SDS011;69222;52.242;20.980;2024-01-30T01:08:17;25.90;;;16.03;;
17606;SDS011;69222;52.242;20.980;2024-01-30T01:10:48;29.43;;;16.50;;
17606;SDS011;69222;52.242;20.980;2024-01-30T01:13:15;24.37;;;15.63;;
17606;SDS011;69222;52.242;20.980;2024-01-30T01:15:43;27.23;;;15.50;;
17606;SDS011;69222;52.242;20.980;2024-01-30T01:18:11;28.73;;;15.43;;
17606;SDS011;69222;52.242;20.980;2024-01-30T01:20:39;28.63;;;16.20;;
17606;SDS011;69222;52.242;20.980;2024-01-30T01:23:07;26.47;;;15.97;;
17606;SDS011;69222;52.242;20.980;2024-01-30T01:25:36;26.93;;;16.33;;
17606;SDS011;69222;52.242;20.980;2024-01-30T01:28:05;26.97;;;16.50;;
17606;SDS011;69222;52.242;20.980;2024-01-30T01:30:33;27.23;;;14.60;;
17606;SDS011;69222;52.242;20.980;2024-01-30T01:33:02;27.17;;;16.00;;
17606;SDS011;69222;52.242;20.980;2024-01-30T01:35:30;28.43;;;15.57;;
17606;SDS011;69222;52.242;20.980;2024-01-30T01:37:58;28.37;;;15.57;;
17606;SDS011;69222;52.242;20.980;2024-01-30T01:40:27;26.57;;;15.23;;
17606;SDS011;69222;52.242;20.980;2024-01-30T01:42:55;27.83;;;16.30;;
17606;SDS011;69222;52.242;20.980;2024-01-30T01:45:25;29.63;;;15.83;;
17606;SDS011;69222;52.242;20.980;2024-01-30T01:47:53;29.83;;;16.13;;
17606;SDS011;69222;52.242;20.980;2024-01-30T01:50:21;30.33;;;16.00;;
17606;SDS011;69222;52.242;20.980;2024-01-30T01:52:50;28.63;;;17.23;;
17606;SDS011;69222;52.242;20.980;2024-01-30T01:55:21;27.33;;;14.77;;
17606;SDS011;69222;52.242;20.980;2024-01-30T01:57:51;27.47;;;15.73;;
17606;SDS011;69222;52.242;20.980;2024-01-30T02:00:20;28.43;;;15.73;;
17606;SDS011;69222;52.242;20.980;2024-01-30T02:02:50;26.67;;;15.73;;
17606;SDS011;69222;52.242;20.980;2024-01-30T02:05:20;24.87;;;15.53;;
17606;SDS011;69222;52.242;20.980;2024-01-30T02:07:49;28.83;;;16.27;;
17606;SDS011;69222;52.242;20.980;2024-01-30T02:10:18;24.87;;;15.23;;
17606;SDS011;69222;52.242;20.980;2024-01-30T02:12:46;26.10;;;15.67;;
17606;SDS011;69222;52.242;20.980;2024-01-30T02:17:51;28.80;;;15.17;;
17606;SDS011;69222;52.242;20.980;2024-01-30T02:20:19;26.93;;;15.40;;
17606;SDS011;69222;52.242;20.980;2024-01-30T02:22:48;25.33;;;15.23;;
17606;SDS011;69222;52.242;20.980;2024-01-30T02:25:16;28.13;;;15.33;;
17606;SDS011;69222;52.242;20.980;2024-01-30T02:27:44;24.53;;;14.77;;
17606;SDS011;69222;52.242;20.980;2024-01-30T02:30:12;23.80;;;14.43;;
17606;SDS011;69222;52.242;20.980;2024-01-30T02:32:41;25.90;;;15.20;;
17606;SDS011;69222;52.242;20.980;2024-01-30T02:35:09;26.73;;;14.13;;
17606;SDS011;69222;52.242;20.980;2024-01-30T02:37:36;23.80;;;14.53;;
17606;SDS011;69222;52.242;20.980;2024-01-30T02:40:07;23.47;;;14.33;;
17606;SDS011;69222;52.242;20.980;2024-01-30T02:42:35;24.60;;;14.60;;
17606;SDS011;69222;52.242;20.980;2024-01-30T02:45:03;25.87;;;14.53;;
17606;SDS011;69222;52.242;20.980;2024-01-30T02:47:31;27.43;;;15.40;;
17606;SDS011;69222;52.242;20.980;2024-01-30T02:49:59;26.90;;;14.13;;
17606;SDS011;69222;52.242;20.980;2024-01-30T02:52:27;25.70;;;15.27;;
17606;SDS011;69222;52.242;20.980;2024-01-30T02:54:55;24.60;;;14.47;;
17606;SDS011;69222;52.242;20.980;2024-01-30T02:57:25;23.47;;;14.13;;
17606;SDS011;69222;52.242;20.980;2024-01-30T02:59:52;26.67;;;14.27;;
17606;SDS011;69222;52.242;20.980;2024-01-30T03:02:20;26.47;;;15.03;;
17606;SDS011;69222;52.242;20.980;2024-01-30T03:04:48;24.37;;;14.47;;
17606;SDS011;69222;52.242;20.980;2024-01-30T03:07:16;26.40;;;14.97;;
17606;SDS011;69222;52.242;20.980;2024-01-30T03:09:44;22.77;;;14.23;;
17606;SDS011;69222;52.242;20.980;2024-01-30T03:12:12;25.87;;;14.17;;
17606;SDS011;69222;52.242;20.980;2024-01-30T03:14:41;24.90;;;13.83;;
17606;SDS011;69222;52.242;20.980;2024-01-30T03:17:09;25.27;;;13.83;;
17606;SDS011;69222;52.242;20.980;2024-01-30T03:19:37;25.40;;;14.73;;
17606;SDS011;69222;52.242;20.980;2024-01-30T03:22:05;25.43;;;14.50;;
17606;SDS011;69222;52.242;20.980;2024-01-30T03:24:33;25.07;;;14.47;;
17606;SDS011;69222;52.242;20.980;2024-01-30T03:27:01;23.00;;;14.60;;
17606;SDS011;69222;52.242;20.980;2024-01-30T03:29:29;24.67;;;14.47;;
17606;SDS011;69222;52.242;20.980;2024-01-30T03:31:58;25.63;;;15.07;;
17606;SDS011;69222;52.242;20.980;2024-01-30T03:34:26;24.50;;;14.43;;
17606;SDS011;69222;52.242;20.980;2024-01-30T03:36:54;25.97;;;14.63;;
17606;SDS011;69222;52.242;20.980;2024-01-30T03:39:24;26.20;;;14.13;;
17606;SDS011;69222;52.242;20.980;2024-01-30T03:41:51;26.83;;;14.63;;
17606;SDS011;69222;52.242;20.980;2024-01-30T03:44:19;23.40;;;14.10;;
17606;SDS011;69222;52.242;20.980;2024-01-30T03:46:47;25.83;;;13.63;;
17606;SDS011;69222;52.242;20.980;2024-01-30T03:49:16;21.40;;;12.83;;
17606;SDS011;69222;52.242;20.980;2024-01-30T03:51:45;26.10;;;14.23;;
17606;SDS011;69222;52.242;20.980;2024-01-30T03:54:14;27.57;;;15.00;;
17606;SDS011;69222;52.242;20.980;2024-01-30T03:56:42;25.77;;;14.60;;
17606;SDS011;69222;52.242;20.980;2024-01-30T03:59:10;25.83;;;14.67;;
17606;SDS011;69222;52.242;20.980;2024-01-30T04:01:38;29.13;;;14.27;;
17606;SDS011;69222;52.242;20.980;2024-01-30T04:04:06;25.57;;;14.20;;
17606;SDS011;69222;52.242;20.980;2024-01-30T04:06:35;23.80;;;14.13;;
17606;SDS011;69222;52.242;20.980;2024-01-30T04:09:04;25.87;;;13.60;;
17606;SDS011;69222;52.242;20.980;2024-01-30T04:11:32;26.80;;;15.83;;
17606;SDS011;69222;52.242;20.980;2024-01-30T04:14:00;25.33;;;14.43;;
17606;SDS011;69222;52.242;20.980;2024-01-30T04:16:28;23.03;;;13.57;;
17606;SDS011;69222;52.242;20.980;2024-01-30T04:18:55;25.60;;;13.97;;
17606;SDS011;69222;52.242;20.980;2024-01-30T04:21:23;24.17;;;14.73;;
17606;SDS011;69222;52.242;20.980;2024-01-30T04:23:53;29.17;;;15.17;;
17606;SDS011;69222;52.242;20.980;2024-01-30T04:26:21;24.47;;;14.30;;
17606;SDS011;69222;52.242;20.980;2024-01-30T04:28:48;29.53;;;14.70;;
17606;SDS011;69222;52.242;20.980;2024-01-30T04:31:16;25.60;;;14.40;;
17606;SDS011;69222;52.242;20.980;2024-01-30T04:33:44;24.63;;;13.97;;
17606;SDS011;69222;52.242;20.980;2024-01-30T04:36:13;24.07;;;14.93;;
17606;SDS011;69222;52.242;20.980;2024-01-30T04:38:41;23.67;;;13.13;;
17606;SDS011;69222;52.242;20.980;2024-01-30T04:41:10;23.00;;;13.73;;
17606;SDS011;69222;52.242;20.980;2024-01-30T04:43:38;26.57;;;13.63;;
17606;SDS011;69222;52.242;20.980;2024-01-30T04:46:05;24.20;;;13.77;;
17606;SDS011;69222;52.242;20.980;2024-01-30T04:48:33;22.50;;;13.20;;
17606;SDS011;69222;52.242;20.980;2024-01-30T04:51:02;25.17;;;13.50;;
17606;SDS011;69222;52.242;20.980;2024-01-30T04:53:30;22.73;;;13.10;;
17606;SDS011;69222;52.242;20.980;2024-01-30T04:55:58;26.03;;;14.43;;
17606;SDS011;69222;52.242;20.980;2024-01-30T04:58:28;26.03;;;13.40;;
17606;SDS011;69222;52.242;20.980;2024-01-30T05:00:56;23.83;;;13.90;;
17606;SDS011;69222;52.242;20.980;2024-01-30T05:03:24;23.20;;;13.03;;
17606;SDS011;69222;52.242;20.980;2024-01-30T05:05:52;28.03;;;14.37;;
17606;SDS011;69222;52.242;20.980;2024-01-30T05:08:20;22.53;;;13.53;;
17606;SDS011;69222;52.242;20.980;2024-01-30T05:10:48;25.80;;;14.13;;
17606;SDS011;69222;52.242;20.980;2024-01-30T05:13:16;25.87;;;14.33;;
17606;SDS011;69222;52.242;20.980;2024-01-30T05:15:45;24.77;;;14.83;;
17606;SDS011;69222;52.242;20.980;2024-01-30T05:18:13;25.17;;;14.10;;
17606;SDS011;69222;52.242;20.980;2024-01-30T05:20:41;24.73;;;13.60;;
17606;SDS011;69222;52.242;20.980;2024-01-30T05:23:09;22.40;;;13.03;;
17606;SDS011;69222;52.242;20.980;2024-01-30T05:25:37;25.03;;;13.67;;
17606;SDS011;69222;52.242;20.980;2024-01-30T05:28:05;23.10;;;14.23;;
17606;SDS011;69222;52.242;20.980;2024-01-30T05:30:33;24.83;;;13.43;;
17606;SDS011;69222;52.242;20.980;2024-01-30T05:33:03;25.37;;;13.33;;
17606;SDS011;69222;52.242;20.980;2024-01-30T05:35:31;24.97;;;13.73;;
17606;SDS011;69222;52.242;20.980;2024-01-30T05:37:59;23.90;;;13.47;;
17606;SDS011;69222;52.242;20.980;2024-01-30T05:40:27;23.50;;;14.27;;
17606;SDS011;69222;52.242;20.980;2024-01-30T05:42:55;22.77;;;13.17;;
17606;SDS011;69222;52.242;20.980;2024-01-30T05:45:25;24.43;;;14.17;;
17606;SDS011;69222;52.242;20.980;2024-01-30T05:47:53;26.57;;;13.73;;
17606;SDS011;69222;52.242;20.980;2024-01-30T05:50:22;22.90;;;13.10;;
17606;SDS011;69222;52.242;20.980;2024-01-30T05:52:51;21.60;;;12.87;;
17606;SDS011;69222;52.242;20.980;2024-01-30T05:55:19;26.43;;;13.77;;
17606;SDS011;69222;52.242;20.980;2024-01-30T05:57:47;24.37;;;13.73;;
17606;SDS011;69222;52.242;20.980;2024-01-30T06:00:16;23.97;;;13.80;;
17606;SDS011;69222;52.242;20.980;2024-01-30T06:02:44;22.50;;;13.07;;
17606;SDS011;69222;52.242;20.980;2024-01-30T06:05:12;24.80;;;14.00;;
17606;SDS011;69222;52.242;20.980;2024-01-30T06:07:42;25.27;;;13.13;;
17606;SDS011;69222;52.242;20.980;2024-01-30T06:10:10;23.53;;;14.13;;
17606;SDS011;69222;52.242;20.980;2024-01-30T06:12:38;24.40;;;13.07;;
17606;SDS011;69222;52.242;20.980;2024-01-30T06:15:08;27.33;;;13.73;;
17606;SDS011;69222;52.242;20.980;2024-01-30T06:17:36;24.60;;;13.17;;
17606;SDS011;69222;52.242;20.980;2024-01-30T06:20:05;26.00;;;13.83;;
17606;SDS011;69222;52.242;20.980;2024-01-30T06:22:34;24.10;;;13.57;;
17606;SDS011;69222;52.242;20.980;2024-01-30T06:25:03;25.90;;;13.37;;
17606;SDS011;69222;52.242;20.980;2024-01-30T06:27:31;20.93;;;11.97;;
17606;SDS011;69222;52.242;20.980;2024-01-30T06:30:00;27.07;;;14.27;;
17606;SDS011;69222;52.242;20.980;2024-01-30T06:32:28;28.10;;;13.93;;
17606;SDS011;69222;52.242;20.980;2024-01-30T06:35:00;26.77;;;14.30;;
17606;SDS011;69222;52.242;20.980;2024-01-30T06:37:29;25.23;;;14.20;;
17606;SDS011;69222;52.242;20.980;2024-01-30T06:39:57;25.27;;;13.13;;
17606;SDS011;69222;52.242;20.980;2024-01-30T06:42:26;29.50;;;13.27;;
17606;SDS011;69222;52.242;20.980;2024-01-30T06:44:54;25.60;;;13.93;;
17606;SDS011;69222;52.242;20.980;2024-01-30T06:47:22;25.80;;;14.37;;
17606;SDS011;69222;52.242;20.980;2024-01-30T06:49:49;26.20;;;14.57;;
17606;SDS011;69222;52.242;20.980;2024-01-30T06:52:17;20.00;;;12.83;;
17606;SDS011;69222;52.242;20.980;2024-01-30T06:54:45;26.10;;;14.03;;
17606;SDS011;69222;52.242;20.980;2024-01-30T06:57:13;27.27;;;13.90;;
17606;SDS011;69222;52.242;20.980;2024-01-30T06:59:42;20.97;;;13.03;;
17606;SDS011;69222;52.242;20.980;2024-01-30T07:02:10;21.63;;;13.23;;
17606;SDS011;69222;52.242;20.980;2024-01-30T07:04:38;25.47;;;14.10;;
17606;SDS011;69222;52.242;20.980;2024-01-30T07:07:12;25.20;;;13.60;;
17606;SDS011;69222;52.242;20.980;2024-01-30T07:09:42;23.50;;;13.57;;
17606;SDS011;69222;52.242;20.980;2024-01-30T07:12:10;25.07;;;14.07;;
17606;SDS011;69222;52.242;20.980;2024-01-30T07:14:38;23.27;;;13.23;;
17606;SDS011;69222;52.242;20.980;2024-01-30T07:17:07;29.93;;;14.87;;
17606;SDS011;69222;52.242;20.980;2024-01-30T07:19:35;29.37;;;14.57;;
17606;SDS011;69222;52.242;20.980;2024-01-30T07:22:03;23.70;;;14.23;;
17606;SDS011;69222;52.242;20.980;2024-01-30T07:24:31;23.30;;;13.40;;
17606;SDS011;69222;52.242;20.980;2024-01-30T07:26:59;28.47;;;13.57;;
17606;SDS011;69222;52.242;20.980;2024-01-30T07:29:27;23.87;;;13.60;;
17606;SDS011;69222;52.242;20.980;2024-01-30T07:31:55;26.57;;;13.37;;
17606;SDS011;69222;52.242;20.980;2024-01-30T07:34:24;23.23;;;13.93;;
17606;SDS011;69222;52.242;20.980;2024-01-30T07:36:54;23.60;;;13.87;;
17606;SDS011;69222;52.242;20.980;2024-01-30T07:39:22;23.90;;;13.77;;
17606;SDS011;69222;52.242;20.980;2024-01-30T07:41:50;24.53;;;13.80;;
17606;SDS011;69222;52.242;20.980;2024-01-30T07:44:18;26.87;;;14.27;;
17606;SDS011;69222;52.242;20.980;2024-01-30T07:46:46;21.77;;;12.97;;
17606;SDS011;69222;52.242;20.980;2024-01-30T07:49:14;25.73;;;14.07;;
17606;SDS011;69222;52.242;20.980;2024-01-30T07:51:43;26.93;;;14.13;;
17606;SDS011;69222;52.242;20.980;2024-01-30T07:54:11;25.17;;;13.37;;
17606;SDS011;69222;52.242;20.980;2024-01-30T07:56:39;27.63;;;14.17;;
17606;SDS011;69222;52.242;20.980;2024-01-30T07:59:09;27.70;;;13.03;;
17606;SDS011;69222;52.242;20.980;2024-01-30T08:01:37;24.07;;;13.53;;
17606;SDS011;69222;52.242;20.980;2024-01-30T08:04:05;24.47;;;12.30;;
17606;SDS011;69222;52.242;20.980;2024-01-30T08:06:33;20.40;;;12.70;;
17606;SDS011;69222;52.242;20.980;2024-01-30T08:09:03;22.90;;;14.00;;
17606;SDS011;69222;52.242;20.980;2024-01-30T08:11:31;22.63;;;12.87;;
17606;SDS011;69222;52.242;20.980;2024-01-30T08:13:59;28.07;;;13.23;;
17606;SDS011;69222;52.242;20.980;2024-01-30T08:16:26;23.43;;;13.33;;
17606;SDS011;69222;52.242;20.980;2024-01-30T08:18:55;23.57;;;12.53;;
17606;SDS011;69222;52.242;20.980;2024-01-30T08:21:24;21.77;;;13.43;;
17606;SDS011;69222;52.242;20.980;2024-01-30T08:23:52;23.33;;;12.40;;
17606;SDS011;69222;52.242;20.980;2024-01-30T08:26:21;21.27;;;12.77;;
17606;SDS011;69222;52.242;20.980;2024-01-30T08:28:49;23.93;;;13.80;;
17606;SDS011;69222;52.242;20.980;2024-01-30T08:31:20;23.23;;;12.87;;
17606;SDS011;69222;52.242;20.980;2024-01-30T08:33:48;25.00;;;13.10;;
17606;SDS011;69222;52.242;20.980;2024-01-30T08:36:16;22.27;;;13.10;;
17606;SDS011;69222;52.242;20.980;2024-01-30T08:38:45;24.73;;;13.10;;
17606;SDS011;69222;52.242;20.980;2024-01-30T08:41:13;27.77;;;13.70;;
17606;SDS011;69222;52.242;20.980;2024-01-30T08:43:42;23.33;;;13.53;;
17606;SDS011;69222;52.242;20.980;2024-01-30T08:46:11;22.83;;;12.80;;
17606;SDS011;69222;52.242;20.980;2024-01-30T08:48:40;24.80;;;12.67;;
17606;SDS011;69222;52.242;20.980;2024-01-30T08:51:08;25.47;;;13.00;;
17606;SDS011;69222;52.242;20.980;2024-01-30T08:53:37;24.17;;;13.13;;
17606;SDS011;69222;52.242;20.980;2024-01-30T08:56:06;26.17;;;11.93;;
17606;SDS011;69222;52.242;20.980;2024-01-30T08:58:34;22.03;;;13.50;;
17606;SDS011;69222;52.242;20.980;2024-01-30T09:01:04;23.67;;;12.70;;
17606;SDS011;69222;52.242;20.980;2024-01-30T09:03:32;19.50;;;11.93;;
17606;SDS011;69222;52.242;20.980;2024-01-30T09:06:01;24.43;;;13.67;;
17606;SDS011;69222;52.242;20.980;2024-01-30T09:08:29;23.40;;;12.57;;
17606;SDS011;69222;52.242;20.980;2024-01-30T09:10:57;19.97;;;12.23;;
17606;SDS011;69222;52.242;20.980;2024-01-30T09:13:25;20.00;;;11.70;;
17606;SDS011;69222;52.242;20.980;2024-01-30T09:15:53;21.30;;;11.60;;
17606;SDS011;69222;52.242;20.980;2024-01-30T09:18:23;21.00;;;12.00;;
17606;SDS011;69222;52.242;20.980;2024-01-30T09:20:54;20.90;;;12.07;;
17606;SDS011;69222;52.242;20.980;2024-01-30T09:23:22;17.90;;;10.53;;
17606;SDS011;69222;52.242;20.980;2024-01-30T09:25:50;21.30;;;11.10;;
17606;SDS011;69222;52.242;20.980;2024-01-30T09:28:18;20.50;;;11.43;;
17606;SDS011;69222;52.242;20.980;2024-01-30T09:30:47;19.10;;;11.40;;
17606;SDS011;69222;52.242;20.980;2024-01-30T09:33:15;18.37;;;10.63;;
17606;SDS011;69222;52.242;20.980;2024-01-30T09:35:45;18.87;;;10.80;;
17606;SDS011;69222;52.242;20.980;2024-01-30T09:38:12;18.33;;;9.63;;
17606;SDS011;69222;52.242;20.980;2024-01-30T09:40:40;18.53;;;11.20;;
17606;SDS011;69222;52.242;20.980;2024-01-30T09:43:09;17.20;;;9.80;;
17606;SDS011;69222;52.242;20.980;2024-01-30T09:45:44;16.83;;;9.43;;
17606;SDS011;69222;52.242;20.980;2024-01-30T09:48:14;16.17;;;9.47;;
17606;SDS011;69222;52.242;20.980;2024-01-30T09:50:43;14.80;;;9.13;;
17606;SDS011;69222;52.242;20.980;2024-01-30T09:53:12;23.17;;;8.57;;
17606;SDS011;69222;52.242;20.980;2024-01-30T09:55:42;16.90;;;9.50;;
17606;SDS011;69222;52.242;20.980;2024-01-30T09:58:12;20.80;;;9.20;;
17606;SDS011;69222;52.242;20.980;2024-01-30T10:00:40;16.63;;;9.70;;
17606;SDS011;69222;52.242;20.980;2024-01-30T10:03:09;20.53;;;9.77;;
17606;SDS011;69222;52.242;20.980;2024-01-30T10:05:37;15.87;;;8.60;;
17606;SDS011;69222;52.242;20.980;2024-01-30T10:08:09;13.60;;;8.40;;
17606;SDS011;69222;52.242;20.980;2024-01-30T10:10:37;16.30;;;9.07;;
17606;SDS011;69222;52.242;20.980;2024-01-30T10:13:05;15.27;;;8.70;;
17606;SDS011;69222;52.242;20.980;2024-01-30T10:15:33;16.97;;;9.83;;
17606;SDS011;69222;52.242;20.980;2024-01-30T10:18:02;18.10;;;9.33;;
17606;SDS011;69222;52.242;20.980;2024-01-30T10:20:33;15.10;;;9.20;;
17606;SDS011;69222;52.242;20.980;2024-01-30T10:23:01;16.37;;;9.13;;
17606;SDS011;69222;52.242;20.980;2024-01-30T10:25:31;13.50;;;8.60;;
17606;SDS011;69222;52.242;20.980;2024-01-30T10:28:00;15.13;;;9.80;;
17606;SDS011;69222;52.242;20.980;2024-01-30T10:30:28;16.97;;;9.87;;
17606;SDS011;69222;52.242;20.980;2024-01-30T10:32:56;18.87;;;9.10;;
17606;SDS011;69222;52.242;20.980;2024-01-30T10:35:24;14.33;;;8.27;;
17606;SDS011;69222;52.242;20.980;2024-01-30T10:37:52;14.53;;;9.23;;
17606;SDS011;69222;52.242;20.980;2024-01-30T10:40:22;14.33;;;8.10;;
17606;SDS011;69222;52.242;20.980;2024-01-30T10:42:56;15.10;;;8.63;;
17606;SDS011;69222;52.242;20.980;2024-01-30T10:45:30;13.83;;;7.77;;
17606;SDS011;69222;52.242;20.980;2024-01-30T10:47:59;14.67;;;8.43;;
17606;SDS011;69222;52.242;20.980;2024-01-30T10:50:30;19.03;;;8.73;;
17606;SDS011;69222;52.242;20.980;2024-01-30T10:53:02;15.93;;;8.47;;
17606;SDS011;69222;52.242;20.980;2024-01-30T10:55:32;18.23;;;8.33;;
17606;SDS011;69222;52.242;20.980;2024-01-30T10:58:03;13.97;;;8.90;;
17606;SDS011;69222;52.242;20.980;2024-01-30T11:00:32;16.47;;;9.23;;
17606;SDS011;69222;52.242;20.980;2024-01-30T11:03:01;17.77;;;9.80;;
17606;SDS011;69222;52.242;20.980;2024-01-30T11:05:30;16.77;;;9.47;;
17606;SDS011;69222;52.242;20.980;2024-01-30T11:08:00;16.67;;;8.80;;
17606;SDS011;69222;52.242;20.980;2024-01-30T11:10:44;14.27;;;8.67;;
17606;SDS011;69222;52.242;20.980;2024-01-30T11:13:14;15.27;;;9.47;;
17606;SDS011;69222;52.242;20.980;2024-01-30T11:15:43;16.37;;;9.17;;
17606;SDS011;69222;52.242;20.980;2024-01-30T11:18:11;15.77;;;9.73;;
17606;SDS011;69222;52.242;20.980;2024-01-30T11:20:39;15.07;;;9.40;;
17606;SDS011;69222;52.242;20.980;2024-01-30T11:23:14;15.80;;;9.67;;
17606;SDS011;69222;52.242;20.980;2024-01-30T11:25:43;15.37;;;9.20;;
17606;SDS011;69222;52.242;20.980;2024-01-30T11:28:16;19.13;;;9.60;;
17606;SDS011;69222;52.242;20.980;2024-01-30T11:30:44;15.67;;;9.17;;
17606;SDS011;69222;52.242;20.980;2024-01-30T11:33:14;19.23;;;9.40;;
17606;SDS011;69222;52.242;20.980;2024-01-30T11:35:58;14.00;;;9.63;;
17606;SDS011;69222;52.242;20.980;2024-01-30T11:38:27;16.87;;;9.30;;
17606;SDS011;69222;52.242;20.980;2024-01-30T11:40:56;17.27;;;9.97;;
17606;SDS011;69222;52.242;20.980;2024-01-30T11:43:25;13.17;;;9.20;;
17606;SDS011;69222;52.242;20.980;2024-01-30T11:45:53;17.17;;;9.43;;
17606;SDS011;69222;52.242;20.980;2024-01-30T11:48:21;15.83;;;9.37;;
17606;SDS011;69222;52.242;20.980;2024-01-30T11:50:50;15.73;;;9.03;;
17606;SDS011;69222;52.242;20.980;2024-01-30T11:53:18;14.60;;;9.27;;
17606;SDS011;69222;52.242;20.980;2024-01-30T11:55:49;15.83;;;9.40;;
17606;SDS011;69222;52.242;20.980;2024-01-30T11:58:17;16.77;;;9.13;;
17606;SDS011;69222;52.242;20.980;2024-01-30T12:00:53;22.33;;;10.20;;
17606;SDS011;69222;52.242;20.980;2024-01-30T12:03:23;23.30;;;9.50;;
17606;SDS011;69222;52.242;20.980;2024-01-30T12:05:54;15.50;;;9.43;;
17606;SDS011;69222;52.242;20.980;2024-01-30T12:08:24;15.77;;;9.73;;
17606;SDS011;69222;52.242;20.980;2024-01-30T12:10:55;17.77;;;9.43;;
17606;SDS011;69222;52.242;20.980;2024-01-30T12:13:25;14.77;;;8.67;;
17606;SDS011;69222;52.242;20.980;2024-01-30T12:15:59;14.17;;;9.73;;
17606;SDS011;69222;52.242;20.980;2024-01-30T12:18:28;15.57;;;8.90;;
17606;SDS011;69222;52.242;20.980;2024-01-30T12:20:59;14.50;;;8.57;;
17606;SDS011;69222;52.242;20.980;2024-01-30T12:23:27;14.10;;;9.17;;
17606;SDS011;69222;52.242;20.980;2024-01-30T12:25:56;13.83;;;8.40;;
17606;SDS011;69222;52.242;20.980;2024-01-30T12:28:24;13.97;;;8.67;;
17606;SDS011;69222;52.242;20.980;2024-01-30T12:30:55;14.73;;;9.87;;
17606;SDS011;69222;52.242;20.980;2024-01-30T12:33:26;14.00;;;8.77;;
17606;SDS011;69222;52.242;20.980;2024-01-30T12:35:55;13.27;;;8.57;;
17606;SDS011;69222;52.242;20.980;2024-01-30T12:38:29;16.57;;;8.77;;
17606;SDS011;69222;52.242;20.980;2024-01-30T12:40:57;12.23;;;8.50;;
17606;SDS011;69222;52.242;20.980;2024-01-30T12:43:25;17.33;;;9.43;;
17606;SDS011;69222;52.242;20.980;2024-01-30T12:46:04;14.50;;;9.23;;
17606;SDS011;69222;52.242;20.980;2024-01-30T12:48:34;14.83;;;9.73;;
17606;SDS011;69222;52.242;20.980;2024-01-30T12:51:02;15.23;;;8.73;;
17606;SDS011;69222;52.242;20.980;2024-01-30T12:53:31;17.07;;;10.03;;
17606;SDS011;69222;52.242;20.980;2024-01-30T12:55:59;14.33;;;9.13;;
17606;SDS011;69222;52.242;20.980;2024-01-30T12:58:27;18.90;;;9.50;;
17606;SDS011;69222;52.242;20.980;2024-01-30T13:00:55;15.27;;;10.23;;
17606;SDS011;69222;52.242;20.980;2024-01-30T13:03:24;17.40;;;10.00;;
17606;SDS011;69222;52.242;20.980;2024-01-30T13:05:54;15.73;;;8.63;;
17606;SDS011;69222;52.242;20.980;2024-01-30T13:08:22;28.87;;;10.17;;
17606;SDS011;69222;52.242;20.980;2024-01-30T13:10:50;15.60;;;9.93;;
17606;SDS011;69222;52.242;20.980;2024-01-30T13:13:19;16.70;;;9.27;;
17606;SDS011;69222;52.242;20.980;2024-01-30T13:15:47;15.37;;;9.30;;
17606;SDS011;69222;52.242;20.980;2024-01-30T13:18:15;17.23;;;10.10;;
17606;SDS011;69222;52.242;20.980;2024-01-30T13:20:43;13.67;;;9.13;;
17606;SDS011;69222;52.242;20.980;2024-01-30T13:23:13;13.30;;;9.10;;
17606;SDS011;69222;52.242;20.980;2024-01-30T13:25:40;14.37;;;9.73;;
17606;SDS011;69222;52.242;20.980;2024-01-30T13:28:08;13.17;;;9.00;;
17606;SDS011;69222;52.242;20.980;2024-01-30T13:30:36;14.13;;;9.40;;
17606;SDS011;69222;52.242;20.980;2024-01-30T13:33:04;16.07;;;9.80;;
17606;SDS011;69222;52.242;20.980;2024-01-30T13:35:33;16.07;;;9.30;;
17606;SDS011;69222;52.242;20.980;2024-01-30T13:38:00;14.27;;;9.37;;
17606;SDS011;69222;52.242;20.980;2024-01-30T13:40:30;15.60;;;8.43;;
17606;SDS011;69222;52.242;20.980;2024-01-30T13:42:58;13.93;;;9.60;;
17606;SDS011;69222;52.242;20.980;2024-01-30T13:45:26;20.50;;;9.47;;
17606;SDS011;69222;52.242;20.980;2024-01-30T13:47:55;16.43;;;9.27;;
17606;SDS011;69222;52.242;20.980;2024-01-30T13:50:23;14.63;;;8.83;;
17606;SDS011;69222;52.242;20.980;2024-01-30T13:52:51;14.17;;;8.93;;
17606;SDS011;69222;52.242;20.980;2024-01-30T13:55:19;15.00;;;9.00;;
17606;SDS011;69222;52.242;20.980;2024-01-30T13:57:49;17.57;;;9.20;;
17606;SDS011;69222;52.242;20.980;2024-01-30T14:00:18;17.20;;;9.03;;
17606;SDS011;69222;52.242;20.980;2024-01-30T14:02:48;17.23;;;9.53;;
17606;SDS011;69222;52.242;20.980;2024-01-30T14:05:16;11.93;;;9.03;;
17606;SDS011;69222;52.242;20.980;2024-01-30T14:07:45;11.70;;;8.57;;
17606;SDS011;69222;52.242;20.980;2024-01-30T14:10:14;14.93;;;9.60;;
17606;SDS011;69222;52.242;20.980;2024-01-30T14:12:42;16.77;;;9.60;;
17606;SDS011;69222;52.242;20.980;2024-01-30T14:15:12;17.33;;;9.87;;
17606;SDS011;69222;52.242;20.980;2024-01-30T14:17:53;15.47;;;9.40;;
17606;SDS011;69222;52.242;20.980;2024-01-30T14:20:22;17.53;;;9.77;;
17606;SDS011;69222;52.242;20.980;2024-01-30T14:22:51;17.57;;;10.47;;
17606;SDS011;69222;52.242;20.980;2024-01-30T14:25:19;17.33;;;9.77;;